createdAt,value
2018-09-24T00:02:28.271Z,9.98
2018-09-24T00:04:56.808Z,9.89
2018-09-24T00:07:31.508Z,9.80
2018-09-24T00:10:01.209Z,9.76
2018-09-24T00:12:29.804Z,9.61
2018-09-24T00:15:07.896Z,9.58
2018-09-24T00:17:37.041Z,9.62
2018-09-24T00:20:10.064Z,9.64
2018-09-24T00:22:38.986Z,9.53
2018-09-24T00:25:07.516Z,9.46
2018-09-24T00:27:36.122Z,9.53
2018-09-24T00:30:04.707Z,9.47
2018-09-24T00:32:33.921Z,9.43
2018-09-24T00:35:02.428Z,9.42
2018-09-24T00:37:31.281Z,9.34
2018-09-24T00:40:00.068Z,9.26
2018-09-24T00:42:29.223Z,9.21
2018-09-24T00:44:57.720Z,9.22
2018-09-24T00:47:26.592Z,9.19
2018-09-24T00:49:55.092Z,9.22
2018-09-24T00:52:23.628Z,9.15
2018-09-24T00:54:52.148Z,9.05
2018-09-24T00:57:20.685Z,8.95
2018-09-24T00:59:49.296Z,8.90
2018-09-24T01:02:17.832Z,8.94
2018-09-24T01:04:46.321Z,8.80
2018-09-24T01:07:14.859Z,8.68
2018-09-24T01:09:43.384Z,8.71
2018-09-24T01:12:11.930Z,8.77
2018-09-24T01:14:40.486Z,8.67
2018-09-24T01:17:08.995Z,8.59
2018-09-24T01:19:37.517Z,8.51
2018-09-24T01:22:06.029Z,8.44
2018-09-24T01:24:34.556Z,8.48
2018-09-24T01:27:03.060Z,8.60
2018-09-24T01:29:32.278Z,8.51
2018-09-24T01:32:00.777Z,8.39
2018-09-24T01:34:29.305Z,8.36
2018-09-24T01:36:57.913Z,8.28
2018-09-24T01:39:26.656Z,8.35
2018-09-24T01:41:55.181Z,8.16
2018-09-24T01:44:23.736Z,8.24
2018-09-24T01:46:52.246Z,8.33
2018-09-24T01:49:20.777Z,8.46
2018-09-24T01:51:49.340Z,8.38
2018-09-24T01:54:17.869Z,8.43
2018-09-24T01:56:46.364Z,7.97
2018-09-24T01:59:14.892Z,8.09
2018-09-24T02:01:47.561Z,7.96
2018-09-24T02:04:16.285Z,8.18
2018-09-24T02:06:45.119Z,8.21
2018-09-24T02:09:13.864Z,8.30
2018-09-24T02:11:42.728Z,8.31
2018-09-24T02:14:11.277Z,8.29
2018-09-24T02:16:39.788Z,8.50
2018-09-24T02:19:08.332Z,8.37
2018-09-24T02:21:36.832Z,8.26
2018-09-24T02:24:06.497Z,8.18
2018-09-24T02:26:35.018Z,8.39
2018-09-24T02:29:03.569Z,8.30
2018-09-24T02:31:38.777Z,8.32
2018-09-24T02:34:08.317Z,8.41
2018-09-24T02:36:36.904Z,8.26
2018-09-24T02:39:07.453Z,8.27
2018-09-24T02:41:36.009Z,8.19
2018-09-24T02:44:04.568Z,8.13
2018-09-24T02:46:33.128Z,8.29
2018-09-24T02:49:03.502Z,8.28
2018-09-24T02:51:32.661Z,8.27
2018-09-24T02:54:01.199Z,8.29
2018-09-24T02:56:29.692Z,8.18
2018-09-24T02:58:58.227Z,8.04
2018-09-24T03:01:31.982Z,8.11
2018-09-24T03:04:00.824Z,8.17
2018-09-24T03:06:35.016Z,8.18
2018-09-24T03:09:04.155Z,8.14
2018-09-24T03:11:32.721Z,8.04
2018-09-24T03:14:01.258Z,8.07
2018-09-24T03:16:29.799Z,7.82
2018-09-24T03:18:59.864Z,7.71
2018-09-24T03:21:29.061Z,7.74
2018-09-24T03:23:57.856Z,7.43
2018-09-24T03:26:26.406Z,7.58
2018-09-24T03:28:55.024Z,7.63
2018-09-24T03:31:23.572Z,7.61
2018-09-24T03:33:52.092Z,7.29
2018-09-24T03:36:20.652Z,7.53
2018-09-24T03:38:49.177Z,7.63
2018-09-24T03:41:17.736Z,7.51
2018-09-24T03:43:46.253Z,7.47
2018-09-24T03:46:14.805Z,7.51
2018-09-24T03:48:43.326Z,7.61
2018-09-24T03:51:11.877Z,7.30
2018-09-24T03:53:40.400Z,7.26
2018-09-24T03:56:08.960Z,7.22
2018-09-24T03:58:37.472Z,6.92
2018-09-24T04:01:06.068Z,6.71
2018-09-24T04:03:34.624Z,6.82
2018-09-24T04:06:08.431Z,6.70
2018-09-24T04:08:42.148Z,7.01
2018-09-24T04:11:15.987Z,7.08
2018-09-24T04:13:49.729Z,7.05
2018-09-24T04:16:23.625Z,6.78
2018-09-24T04:18:57.313Z,6.89
2018-09-24T04:21:31.037Z,6.61
2018-09-24T04:24:04.815Z,6.43
2018-09-24T04:26:38.690Z,6.48
2018-09-24T04:29:12.973Z,6.43
2018-09-24T04:31:46.690Z,6.40
2018-09-24T04:34:20.505Z,6.24
2018-09-24T04:36:54.232Z,6.38
2018-09-24T04:39:28.120Z,6.60
2018-09-24T04:42:01.866Z,6.70
2018-09-24T04:44:35.469Z,6.70
2018-09-24T04:47:09.366Z,6.76
2018-09-24T04:49:43.111Z,6.71
2018-09-24T04:52:16.829Z,6.68
2018-09-24T04:54:50.653Z,6.59
2018-09-24T04:57:24.584Z,6.47
2018-09-24T04:59:58.677Z,6.27
2018-09-24T05:02:32.993Z,6.57
2018-09-24T05:05:06.713Z,6.34
2018-09-24T05:07:40.597Z,6.28
2018-09-24T05:10:14.477Z,6.64
2018-09-24T05:12:48.158Z,6.57
2018-09-24T05:15:22.169Z,6.61
2018-09-24T05:17:56.083Z,6.64
2018-09-24T05:20:30.031Z,6.55
2018-09-24T05:23:04.477Z,6.29
2018-09-24T05:25:38.635Z,6.13
2018-09-24T05:28:12.480Z,6.21
2018-09-24T05:30:46.268Z,6.29
2018-09-24T05:33:20.112Z,6.33
2018-09-24T05:35:54.001Z,6.24
2018-09-24T05:38:27.800Z,6.45
2018-09-24T05:41:01.429Z,6.50
2018-09-24T05:43:35.229Z,6.33
2018-09-24T05:46:09.197Z,6.23
2018-09-24T05:48:42.956Z,6.10
2018-09-24T05:51:16.697Z,6.31
2018-09-24T05:53:50.520Z,6.42
2018-09-24T05:56:24.353Z,6.34
2018-09-24T05:58:58.050Z,6.29
2018-09-24T06:01:31.956Z,6.09
2018-09-24T06:04:05.760Z,6.35
2018-09-24T06:06:39.596Z,6.54
2018-09-24T06:09:14.315Z,6.57
2018-09-24T06:11:48.478Z,6.48
2018-09-24T06:14:23.968Z,6.61
2018-09-24T06:16:59.289Z,6.60
2018-09-24T06:19:34.544Z,6.85
2018-09-24T06:22:09.828Z,6.90
2018-09-24T06:24:48.964Z,7.01
2018-09-24T06:27:22.982Z,7.03
2018-09-24T06:29:56.865Z,6.96
2018-09-24T06:32:30.578Z,7.02
2018-09-24T06:35:05.830Z,6.79
2018-09-24T06:37:39.864Z,6.91
2018-09-24T06:40:13.689Z,7.06
2018-09-24T06:42:51.489Z,7.09
2018-09-24T06:45:25.293Z,7.17
2018-09-24T06:47:59.156Z,7.33
2018-09-24T06:50:32.983Z,7.43
2018-09-24T06:53:06.757Z,7.64
2018-09-24T06:55:40.528Z,7.70
2018-09-24T06:58:14.397Z,7.78
2018-09-24T07:00:48.166Z,7.81
2018-09-24T07:03:21.889Z,7.88
2018-09-24T07:05:55.538Z,8.07
2018-09-24T07:08:29.431Z,8.11
2018-09-24T07:11:03.257Z,8.18
2018-09-24T07:13:37.105Z,8.24
2018-09-24T07:16:10.829Z,8.31
2018-09-24T07:18:44.702Z,8.38
2018-09-24T07:21:18.484Z,8.41
2018-09-24T07:23:52.245Z,8.56
2018-09-24T07:26:25.977Z,8.53
2018-09-24T07:29:00.284Z,8.80
2018-09-24T07:31:34.105Z,8.80
2018-09-24T07:34:08.056Z,8.76
2018-09-24T07:36:41.788Z,8.92
2018-09-24T07:39:15.771Z,8.91
2018-09-24T07:41:49.745Z,8.99
2018-09-24T07:44:23.445Z,8.99
2018-09-24T07:46:57.152Z,9.05
2018-09-24T07:49:30.917Z,9.08
2018-09-24T07:52:04.753Z,9.26
2018-09-24T07:54:38.526Z,9.33
2018-09-24T07:57:12.365Z,9.39
2018-09-24T07:59:46.236Z,9.54
2018-09-24T08:02:19.857Z,9.61
2018-09-24T08:04:53.793Z,9.68
2018-09-24T08:07:27.635Z,9.75
2018-09-24T08:10:01.408Z,9.79
2018-09-24T08:12:35.131Z,9.85
2018-09-24T08:15:08.833Z,10.05
2018-09-24T08:17:42.464Z,10.12
2018-09-24T08:20:16.217Z,10.06
2018-09-24T08:22:50.000Z,10.11
2018-09-24T08:25:23.948Z,10.14
2018-09-24T08:27:57.810Z,10.30
2018-09-24T08:30:31.488Z,10.33
2018-09-24T08:33:05.168Z,10.44
2018-09-24T08:35:39.020Z,10.42
2018-09-24T08:38:12.899Z,10.48
2018-09-24T08:40:46.554Z,10.61
2018-09-24T08:43:20.504Z,10.47
2018-09-24T08:45:54.489Z,10.44
2018-09-24T08:48:28.238Z,10.54
2018-09-24T08:51:02.508Z,10.66
2018-09-24T08:53:37.636Z,10.65
2018-09-24T08:56:11.841Z,10.77
2018-09-24T08:58:45.724Z,10.92
2018-09-24T09:01:19.427Z,11.12
2018-09-24T09:03:53.139Z,11.02
2018-09-24T09:06:30.939Z,11.03
2018-09-24T09:09:10.569Z,11.13
2018-09-24T09:11:47.348Z,11.14
2018-09-24T09:14:21.498Z,11.22
2018-09-24T09:17:00.236Z,11.27
2018-09-24T09:19:38.360Z,11.27
2018-09-24T09:22:16.550Z,11.49
2018-09-24T09:24:50.337Z,11.61
2018-09-24T09:27:30.102Z,11.48
2018-09-24T09:30:08.901Z,11.60
2018-09-24T09:32:45.419Z,11.66
2018-09-24T09:35:23.193Z,11.52
2018-09-24T09:37:59.921Z,11.60
2018-09-24T09:40:37.577Z,11.62
2018-09-24T09:43:15.496Z,11.86
2018-09-24T09:45:54.080Z,11.87
2018-09-24T09:48:28.889Z,11.98
2018-09-24T09:51:05.518Z,12.16
2018-09-24T09:53:42.613Z,12.47
2018-09-24T09:56:22.709Z,12.84
2018-09-24T09:58:57.129Z,12.88
2018-09-24T10:01:32.587Z,12.97
2018-09-24T10:04:12.007Z,12.93
2018-09-24T10:06:49.582Z,12.87
2018-09-24T10:09:24.696Z,13.32
2018-09-24T10:12:02.826Z,13.23
2018-09-24T10:14:39.028Z,12.64
2018-09-24T10:17:14.140Z,12.62
2018-09-24T10:19:51.182Z,12.74
2018-09-24T10:22:28.146Z,12.92
2018-09-24T10:25:05.811Z,13.09
2018-09-24T10:27:43.601Z,13.12
2018-09-24T10:30:19.586Z,13.47
2018-09-24T10:32:53.565Z,13.53
2018-09-24T10:35:31.213Z,13.37
2018-09-24T10:38:09.637Z,13.35
2018-09-24T10:40:44.509Z,13.43
2018-09-24T10:43:18.232Z,13.27
2018-09-24T10:45:53.516Z,13.16
2018-09-24T10:48:33.360Z,13.13
2018-09-24T10:51:08.476Z,13.11
2018-09-24T10:53:43.648Z,13.24
2018-09-24T10:56:17.308Z,13.43
2018-09-24T10:58:57.978Z,13.40
2018-09-24T11:01:36.714Z,13.26
2018-09-24T11:04:11.590Z,13.43
2018-09-24T11:06:48.289Z,13.80
2018-09-24T11:09:25.368Z,14.09
2018-09-24T11:12:01.203Z,13.95
2018-09-24T11:14:40.021Z,13.78
2018-09-24T11:17:15.689Z,13.91
2018-09-24T11:19:49.361Z,14.03
2018-09-24T11:22:29.578Z,14.12
2018-09-24T11:25:05.096Z,13.36
2018-09-24T11:27:42.130Z,13.46
2018-09-24T11:30:16.029Z,13.59
2018-09-24T11:32:53.295Z,13.60
2018-09-24T11:35:28.133Z,13.84
2018-09-24T11:38:04.387Z,14.05
2018-09-24T11:40:39.433Z,14.07
2018-09-24T11:43:17.726Z,14.32
2018-09-24T11:45:51.950Z,14.42
2018-09-24T11:48:25.758Z,14.45
2018-09-24T11:50:59.533Z,14.23
2018-09-24T11:53:33.391Z,14.26
2018-09-24T11:56:07.120Z,14.04
2018-09-24T11:58:40.728Z,13.88
2018-09-24T12:01:14.576Z,14.27
2018-09-24T12:03:48.366Z,14.45
2018-09-24T12:06:22.179Z,14.78
2018-09-24T12:08:55.823Z,14.90
2018-09-24T12:11:29.692Z,14.84
2018-09-24T12:14:03.447Z,14.89
2018-09-24T12:16:37.192Z,14.86
2018-09-24T12:19:10.801Z,14.48
2018-09-24T12:21:44.580Z,14.16
2018-09-24T12:24:18.242Z,14.01
2018-09-24T12:26:52.009Z,14.13
2018-09-24T12:29:25.659Z,14.05
2018-09-24T12:32:00.237Z,14.27
2018-09-24T12:34:34.014Z,14.32
2018-09-24T12:37:07.753Z,14.58
2018-09-24T12:39:41.386Z,14.45
2018-09-24T12:42:15.264Z,14.53
2018-09-24T12:44:48.977Z,14.85
2018-09-24T12:47:22.841Z,15.42
2018-09-24T12:49:56.586Z,15.71
2018-09-24T12:52:30.806Z,15.52
2018-09-24T12:55:04.467Z,15.31
2018-09-24T12:57:38.260Z,16.01
2018-09-24T13:00:12.001Z,15.81
2018-09-24T13:02:45.866Z,15.55
2018-09-24T13:05:19.741Z,15.83
2018-09-24T13:07:58.244Z,15.51
2018-09-24T13:10:33.310Z,15.47
2018-09-24T13:13:11.192Z,15.29
2018-09-24T13:18:33.741Z,15.31
2018-09-24T13:21:14.309Z,15.64
2018-09-24T13:23:52.475Z,15.62
2018-09-24T13:26:27.242Z,15.67
2018-09-24T13:29:01.145Z,15.91
2018-09-24T13:31:34.949Z,15.68
2018-09-24T13:34:08.686Z,15.75
2018-09-24T13:36:42.432Z,15.61
2018-09-24T13:39:16.049Z,15.50
2018-09-24T13:41:49.949Z,15.75
2018-09-24T13:44:25.480Z,15.77
2018-09-24T13:47:04.304Z,15.64
2018-09-24T13:49:39.335Z,15.75
2018-09-24T13:52:16.658Z,16.02
2018-09-24T13:54:52.294Z,15.81
2018-09-24T13:57:32.076Z,15.22
2018-09-24T14:00:09.486Z,15.18
2018-09-24T14:02:43.936Z,14.99
2018-09-24T14:05:19.957Z,15.07
2018-09-24T14:07:54.720Z,15.35
2018-09-24T14:10:29.549Z,15.47
2018-09-24T14:13:06.087Z,15.59
2018-09-24T14:15:42.944Z,15.41
2018-09-24T14:18:17.665Z,15.62
2018-09-24T14:20:52.358Z,15.77
2018-09-24T14:23:31.137Z,15.87
2018-09-24T14:26:06.160Z,15.75
2018-09-24T14:28:41.347Z,16.04
2018-09-24T14:31:17.843Z,16.03
2018-09-24T14:33:54.614Z,16.80
2018-09-24T14:36:29.838Z,16.37
2018-09-24T14:39:08.303Z,16.34
2018-09-24T14:41:43.956Z,16.80
2018-09-24T14:44:22.368Z,16.89
2018-09-24T14:46:57.819Z,16.37
2018-09-24T14:49:34.375Z,16.48
2018-09-24T14:52:08.808Z,17.04
2018-09-24T14:54:44.804Z,15.88
2018-09-24T14:57:20.693Z,15.30
2018-09-24T14:59:56.340Z,14.99
2018-09-24T15:02:33.515Z,15.02
2018-09-24T15:05:10.020Z,14.85
2018-09-24T15:07:46.799Z,14.88
2018-09-24T15:10:23.806Z,14.91
2018-09-24T15:12:59.493Z,16.01
2018-09-24T15:15:33.895Z,15.11
2018-09-24T15:18:07.617Z,15.12
2018-09-24T15:20:41.536Z,16.39
2018-09-24T15:23:15.334Z,17.63
2018-09-24T15:25:49.390Z,17.77
2018-09-24T15:28:23.288Z,18.43
2018-09-24T15:30:57.017Z,17.35
2018-09-24T15:33:30.870Z,17.82
2018-09-24T15:36:04.522Z,17.09
2018-09-24T15:38:44.024Z,16.10
2018-09-24T15:41:21.969Z,16.03
2018-09-24T15:44:00.288Z,17.38
2018-09-24T15:46:39.238Z,15.96
2018-09-24T15:49:18.106Z,15.61
2018-09-24T15:51:57.974Z,15.07
2018-09-24T15:54:38.002Z,15.29
2018-09-24T15:57:14.669Z,14.88
2018-09-24T15:59:50.976Z,14.84
2018-09-24T16:02:27.540Z,15.89
2018-09-24T16:05:05.650Z,16.53
2018-09-24T16:07:42.419Z,16.50
2018-09-24T16:10:21.198Z,16.49
2018-09-24T16:13:01.498Z,16.61
2018-09-24T16:15:40.602Z,16.39
2018-09-24T16:18:21.805Z,16.25
2018-09-24T16:20:59.955Z,16.20
2018-09-24T16:23:40.013Z,15.67
2018-09-24T16:26:22.073Z,15.66
2018-09-24T16:29:04.211Z,15.73
2018-09-24T16:31:44.255Z,15.27
2018-09-24T16:34:22.479Z,15.28
2018-09-24T16:36:57.104Z,15.49
2018-09-24T16:39:32.714Z,15.30
2018-09-24T16:42:08.741Z,15.30
2018-09-24T16:44:44.982Z,14.49
2018-09-24T16:47:21.889Z,15.00
2018-09-24T16:49:56.444Z,14.90
2018-09-24T16:52:35.804Z,14.72
2018-09-24T16:55:10.731Z,14.73
2018-09-24T16:57:47.400Z,14.49
2018-09-24T17:00:24.872Z,13.91
2018-09-24T17:02:58.972Z,13.93
2018-09-24T17:05:32.870Z,13.60
2018-09-24T17:08:06.596Z,13.40
2018-09-24T17:10:40.568Z,13.34
2018-09-24T17:13:14.259Z,13.35
2018-09-24T17:15:48.104Z,13.27
2018-09-24T17:18:21.910Z,13.18
2018-09-24T17:20:55.733Z,13.15
2018-09-24T17:23:29.464Z,13.08
2018-09-24T17:26:03.379Z,12.84
2018-09-24T17:28:37.301Z,12.78
2018-09-24T17:31:11.101Z,12.60
2018-09-24T17:33:44.710Z,12.55
2018-09-24T17:36:18.484Z,12.63
2018-09-24T17:38:52.217Z,12.35
2018-09-24T17:41:26.036Z,12.02
2018-09-24T17:43:59.853Z,12.20
2018-09-24T17:46:33.755Z,12.06
2018-09-24T17:49:07.609Z,12.00
2018-09-24T17:51:41.433Z,11.92
2018-09-24T17:54:15.325Z,11.51
2018-09-24T17:56:50.104Z,11.88
2018-09-24T17:59:25.044Z,11.88
2018-09-24T18:01:59.312Z,11.95
2018-09-24T18:04:32.908Z,11.96
2018-09-24T18:07:06.833Z,11.60
2018-09-24T18:09:40.684Z,11.48
2018-09-24T18:12:14.486Z,11.33
2018-09-24T18:14:48.334Z,11.55
2018-09-24T18:17:21.997Z,11.11
2018-09-24T18:19:55.825Z,11.44
2018-09-24T18:22:29.725Z,11.42
2018-09-24T18:25:03.422Z,11.53
2018-09-24T18:27:37.361Z,11.38
2018-09-24T18:30:11.104Z,11.91
2018-09-24T18:32:46.009Z,11.96
2018-09-24T18:35:19.668Z,12.01
2018-09-24T18:37:55.756Z,12.11
2018-09-24T18:40:30.838Z,12.06
2018-09-24T18:43:05.761Z,11.99
2018-09-24T18:45:40.202Z,12.06
2018-09-24T18:48:13.959Z,12.09
2018-09-24T18:50:47.653Z,12.05
2018-09-24T18:53:22.423Z,12.04
2018-09-24T18:55:58.914Z,11.93
2018-09-24T18:58:32.750Z,11.91
2018-09-24T19:01:06.817Z,11.83
2018-09-24T19:03:42.813Z,11.89
2018-09-24T19:06:17.095Z,11.65
2018-09-24T19:08:51.505Z,11.72
2018-09-24T19:11:27.957Z,11.60
2018-09-24T19:13:59.108Z,11.53
2018-09-24T19:16:32.733Z,11.40
2018-09-24T19:19:06.978Z,11.21
2018-09-24T19:21:42.483Z,11.31
2018-09-24T19:24:16.329Z,11.20
2018-09-24T19:26:50.393Z,11.26
2018-09-24T19:29:24.153Z,11.12
2018-09-24T19:31:58.402Z,10.93
2018-09-24T19:34:32.373Z,11.02
2018-09-24T19:37:06.316Z,10.90
2018-09-24T19:39:41.237Z,10.64
2018-09-24T19:42:14.901Z,10.57
2018-09-24T19:44:49.276Z,10.50
2018-09-24T19:47:27.737Z,10.51
2018-09-24T19:50:01.813Z,10.24
2018-09-24T19:52:36.745Z,10.29
2018-09-24T19:55:12.546Z,10.19
2018-09-24T19:57:46.748Z,10.12
2018-09-24T20:00:20.499Z,10.04
2018-09-24T20:02:54.338Z,9.85
2018-09-24T20:05:28.204Z,9.84
2018-09-24T20:08:02.040Z,9.95
2018-09-24T20:10:36.184Z,9.69
2018-09-24T20:13:09.989Z,9.77
2018-09-24T20:15:52.013Z,9.73
2018-09-24T20:18:26.434Z,9.35
2018-09-24T20:21:00.763Z,9.54
2018-09-24T20:23:36.033Z,9.38
2018-09-24T20:26:10.302Z,9.38
2018-09-24T20:28:44.648Z,9.34
2018-09-24T20:31:19.698Z,9.32
2018-09-24T20:33:54.311Z,8.93
2018-09-24T20:36:28.905Z,9.03
2018-09-24T20:39:03.056Z,8.88
2018-09-24T20:41:37.472Z,8.85
2018-09-24T20:44:11.149Z,8.97
2018-09-24T20:46:45.297Z,9.13
2018-09-24T20:49:19.133Z,9.19
2018-09-24T20:51:53.952Z,9.16
2018-09-24T20:54:29.112Z,8.95
2018-09-24T20:57:03.604Z,8.81
2018-09-24T20:59:37.845Z,8.76
2018-09-24T21:02:12.293Z,8.79
2018-09-24T21:04:46.824Z,8.70
2018-09-24T21:07:20.685Z,8.76
2018-09-24T21:09:55.602Z,8.95
2018-09-24T21:12:29.509Z,8.52
2018-09-24T21:15:04.233Z,8.45
2018-09-24T21:17:38.717Z,8.46
2018-09-24T21:20:13.004Z,8.43
2018-09-24T21:22:47.151Z,8.32
2018-09-24T21:25:21.339Z,7.85
2018-09-24T21:27:55.184Z,7.84
2018-09-24T21:30:29.587Z,7.69
2018-09-24T21:33:03.410Z,7.80
2018-09-24T21:35:44.910Z,7.92
2018-09-24T21:38:19.243Z,8.14
2018-09-24T21:40:54.465Z,7.92
2018-09-24T21:43:29.345Z,8.12
2018-09-24T21:46:03.776Z,7.97
2018-09-24T21:48:37.854Z,8.00
2018-09-24T21:51:11.769Z,8.04
2018-09-24T21:53:45.640Z,8.05
2018-09-24T21:56:19.451Z,7.87
2018-09-24T21:58:53.074Z,7.53
2018-09-24T22:01:26.798Z,7.18
2018-09-24T22:04:00.481Z,7.16
2018-09-24T22:06:34.340Z,7.38
2018-09-24T22:09:08.205Z,7.47
2018-09-24T22:11:43.138Z,7.56
2018-09-24T22:14:16.918Z,7.27
2018-09-24T22:16:50.973Z,7.32
2018-09-24T22:19:24.772Z,7.23
2018-09-24T22:21:58.618Z,7.51
2018-09-24T22:24:32.257Z,7.34
2018-09-24T22:27:06.179Z,7.31
2018-09-24T22:29:39.885Z,7.07
2018-09-24T22:32:13.709Z,6.88
2018-09-24T22:34:47.497Z,7.23
2018-09-24T22:37:21.356Z,6.85
2018-09-24T22:39:55.145Z,6.86
2018-09-24T22:42:28.997Z,6.81
2018-09-24T22:45:02.781Z,6.92
2018-09-24T22:47:36.579Z,6.89
2018-09-24T22:50:10.715Z,6.85
2018-09-24T22:52:44.456Z,6.61
2018-09-24T22:55:18.300Z,6.62
2018-09-24T22:57:51.918Z,6.81
2018-09-24T23:00:25.482Z,6.87
2018-09-24T23:03:07.624Z,6.79
2018-09-24T23:05:41.612Z,6.88
2018-09-24T23:08:15.280Z,6.83
2018-09-24T23:10:48.967Z,6.77
2018-09-24T23:13:22.844Z,6.55
2018-09-24T23:15:56.509Z,6.50
2018-09-24T23:18:30.220Z,6.69
2018-09-24T23:21:03.887Z,6.70
2018-09-24T23:23:37.748Z,6.16
2018-09-24T23:26:11.841Z,6.42
2018-09-24T23:28:45.718Z,6.09
2018-09-24T23:31:19.651Z,6.36
2018-09-24T23:33:54.016Z,6.34
2018-09-24T23:36:27.927Z,6.49
2018-09-24T23:39:01.605Z,6.18
2018-09-24T23:41:35.503Z,6.43
2018-09-24T23:44:09.569Z,6.51
2018-09-24T23:46:43.870Z,6.59
2018-09-24T23:49:18.126Z,6.62
2018-09-24T23:51:52.229Z,6.64
2018-09-24T23:54:26.259Z,6.41
2018-09-24T23:56:59.968Z,6.27
2018-09-24T23:59:33.728Z,6.25
